sensor_id;sensor_type;location;lat;lon;timestamp;P1;durP1;ratioP1;P2;durP2;ratioP2
19605;SDS011;9950;50.168;8.210;2023-09-18T13:16:11;4.57;;;2.58;;
19605;SDS011;9950;50.168;8.210;2023-09-18T13:18:39;6.55;;;2.45;;
19605;SDS011;9950;50.168;8.210;2023-09-18T13:21:10;4.05;;;2.55;;
19605;SDS011;9950;50.168;8.210;2023-09-18T13:23:37;4.63;;;2.13;;
19605;SDS011;9950;50.168;8.210;2023-09-18T13:26:06;7.35;;;2.05;;
19605;SDS011;9950;50.168;8.210;2023-09-18T13:28:33;4.15;;;1.85;;
19605;SDS011;9950;50.168;8.210;2023-09-18T13:31:01;3.53;;;2.08;;
19605;SDS011;9950;50.168;8.210;2023-09-18T13:33:31;5.25;;;2.38;;
19605;SDS011;9950;50.168;8.210;2023-09-18T13:35:59;7.00;;;2.20;;
19605;SDS011;9950;50.168;8.210;2023-09-18T13:38:26;6.65;;;2.45;;
19605;SDS011;9950;50.168;8.210;2023-09-18T13:40:53;7.63;;;2.58;;
19605;SDS011;9950;50.168;8.210;2023-09-18T13:43:21;3.05;;;2.15;;
19605;SDS011;9950;50.168;8.210;2023-09-18T13:45:48;4.18;;;2.33;;
19605;SDS011;9950;50.168;8.210;2023-09-18T13:48:17;4.60;;;2.20;;
19605;SDS011;9950;50.168;8.210;2023-09-18T13:50:46;6.47;;;2.28;;
19605;SDS011;9950;50.168;8.210;2023-09-18T13:53:14;1.92;;;1.40;;
19605;SDS011;9950;50.168;8.210;2023-09-18T13:55:41;5.80;;;2.03;;
19605;SDS011;9950;50.168;8.210;2023-09-18T13:58:08;4.32;;;1.90;;
19605;SDS011;9950;50.168;8.210;2023-09-18T14:00:35;8.38;;;2.00;;
19605;SDS011;9950;50.168;8.210;2023-09-18T14:03:03;4.30;;;2.08;;
19605;SDS011;9950;50.168;8.210;2023-09-18T14:05:30;2.95;;;1.75;;
19605;SDS011;9950;50.168;8.210;2023-09-18T14:08:00;11.52;;;1.80;;
19605;SDS011;9950;50.168;8.210;2023-09-18T14:10:28;4.60;;;1.85;;
19605;SDS011;9950;50.168;8.210;2023-09-18T14:12:55;3.70;;;1.67;;
19605;SDS011;9950;50.168;8.210;2023-09-18T14:15:23;4.38;;;1.80;;
19605;SDS011;9950;50.168;8.210;2023-09-18T14:17:51;3.85;;;1.80;;
19605;SDS011;9950;50.168;8.210;2023-09-18T14:20:19;5.40;;;2.42;;
19605;SDS011;9950;50.168;8.210;2023-09-18T14:22:46;6.05;;;2.40;;
19605;SDS011;9950;50.168;8.210;2023-09-18T14:25:16;4.43;;;1.98;;
19605;SDS011;9950;50.168;8.210;2023-09-18T14:27:45;4.20;;;2.10;;
19605;SDS011;9950;50.168;8.210;2023-09-18T14:30:12;4.15;;;1.90;;
19605;SDS011;9950;50.168;8.210;2023-09-18T14:32:40;3.38;;;1.80;;
19605;SDS011;9950;50.168;8.210;2023-09-18T14:35:07;2.55;;;1.98;;
19605;SDS011;9950;50.168;8.210;2023-09-18T14:37:34;5.50;;;2.10;;
19605;SDS011;9950;50.168;8.210;2023-09-18T14:40:01;3.58;;;1.92;;
19605;SDS011;9950;50.168;8.210;2023-09-18T14:42:30;2.88;;;1.80;;
19605;SDS011;9950;50.168;8.210;2023-09-18T14:44:58;8.10;;;2.03;;
19605;SDS011;9950;50.168;8.210;2023-09-18T14:47:26;4.55;;;2.00;;
19605;SDS011;9950;50.168;8.210;2023-09-18T14:49:53;3.92;;;1.83;;
19605;SDS011;9950;50.168;8.210;2023-09-18T14:52:21;4.43;;;2.00;;
19605;SDS011;9950;50.168;8.210;2023-09-18T14:54:50;2.28;;;1.80;;
19605;SDS011;9950;50.168;8.210;2023-09-18T14:57:17;3.17;;;1.85;;
19605;SDS011;9950;50.168;8.210;2023-09-18T14:59:46;4.97;;;2.25;;
19605;SDS011;9950;50.168;8.210;2023-09-18T15:02:13;4.45;;;2.13;;
19605;SDS011;9950;50.168;8.210;2023-09-18T15:04:42;2.50;;;1.95;;
19605;SDS011;9950;50.168;8.210;2023-09-18T15:07:09;3.55;;;2.00;;
19605;SDS011;9950;50.168;8.210;2023-09-18T15:09:36;11.82;;;2.80;;
19605;SDS011;9950;50.168;8.210;2023-09-18T15:12:04;2.25;;;1.88;;
19605;SDS011;9950;50.168;8.210;2023-09-18T15:14:32;3.83;;;1.80;;
19605;SDS011;9950;50.168;8.210;2023-09-18T15:17:01;4.13;;;1.83;;
19605;SDS011;9950;50.168;8.210;2023-09-18T15:19:28;3.60;;;2.03;;
19605;SDS011;9950;50.168;8.210;2023-09-18T15:21:55;4.78;;;1.90;;
19605;SDS011;9950;50.168;8.210;2023-09-18T15:24:22;5.47;;;1.92;;
19605;SDS011;9950;50.168;8.210;2023-09-18T15:26:50;4.18;;;2.13;;
19605;SDS011;9950;50.168;8.210;2023-09-18T15:29:17;2.95;;;1.85;;
19605;SDS011;9950;50.168;8.210;2023-09-18T15:31:44;4.25;;;1.98;;
19605;SDS011;9950;50.168;8.210;2023-09-18T15:34:14;2.92;;;1.90;;
19605;SDS011;9950;50.168;8.210;2023-09-18T15:36:41;5.15;;;2.22;;
19605;SDS011;9950;50.168;8.210;2023-09-18T15:39:08;4.88;;;2.10;;
19605;SDS011;9950;50.168;8.210;2023-09-18T15:41:36;6.60;;;2.03;;
19605;SDS011;9950;50.168;8.210;2023-09-18T15:44:03;5.28;;;1.88;;
19605;SDS011;9950;50.168;8.210;2023-09-18T15:46:32;4.93;;;2.17;;
19605;SDS011;9950;50.168;8.210;2023-09-18T15:48:59;6.97;;;2.28;;
19605;SDS011;9950;50.168;8.210;2023-09-18T15:51:28;2.85;;;1.70;;
19605;SDS011;9950;50.168;8.210;2023-09-18T15:53:55;4.13;;;2.00;;
19605;SDS011;9950;50.168;8.210;2023-09-18T15:56:22;5.10;;;2.42;;
19605;SDS011;9950;50.168;8.210;2023-09-18T15:58:49;5.07;;;2.53;;
19605;SDS011;9950;50.168;8.210;2023-09-18T16:01:16;2.55;;;1.80;;
19605;SDS011;9950;50.168;8.210;2023-09-18T16:03:43;4.55;;;2.03;;
19605;SDS011;9950;50.168;8.210;2023-09-18T16:06:12;2.78;;;2.10;;
19605;SDS011;9950;50.168;8.210;2023-09-18T16:08:40;3.28;;;1.80;;
19605;SDS011;9950;50.168;8.210;2023-09-18T16:11:08;4.00;;;2.00;;
19605;SDS011;9950;50.168;8.210;2023-09-18T16:13:36;4.03;;;2.40;;
19605;SDS011;9950;50.168;8.210;2023-09-18T16:16:03;3.50;;;2.10;;
19605;SDS011;9950;50.168;8.210;2023-09-18T16:18:30;3.50;;;1.98;;
19605;SDS011;9950;50.168;8.210;2023-09-18T16:20:58;3.63;;;2.10;;
19605;SDS011;9950;50.168;8.210;2023-09-18T16:23:25;4.03;;;2.15;;
19605;SDS011;9950;50.168;8.210;2023-09-18T16:25:54;4.05;;;1.95;;
19605;SDS011;9950;50.168;8.210;2023-09-18T16:28:22;3.45;;;2.22;;
19605;SDS011;9950;50.168;8.210;2023-09-18T16:30:49;3.60;;;2.20;;
19605;SDS011;9950;50.168;8.210;2023-09-18T16:33:16;3.63;;;2.10;;
19605;SDS011;9950;50.168;8.210;2023-09-18T16:35:43;4.97;;;2.00;;
19605;SDS011;9950;50.168;8.210;2023-09-18T16:38:12;6.32;;;2.30;;
19605;SDS011;9950;50.168;8.210;2023-09-18T16:40:39;4.10;;;2.00;;
19605;SDS011;9950;50.168;8.210;2023-09-18T16:43:07;6.88;;;2.33;;
19605;SDS011;9950;50.168;8.210;2023-09-18T16:45:35;5.05;;;2.28;;
19605;SDS011;9950;50.168;8.210;2023-09-18T16:48:03;5.03;;;2.05;;
19605;SDS011;9950;50.168;8.210;2023-09-18T16:50:30;3.97;;;1.98;;
19605;SDS011;9950;50.168;8.210;2023-09-18T16:52:58;7.80;;;2.30;;
19605;SDS011;9950;50.168;8.210;2023-09-18T16:55:25;4.15;;;2.25;;
19605;SDS011;9950;50.168;8.210;2023-09-18T16:57:52;7.00;;;2.28;;
19605;SDS011;9950;50.168;8.210;2023-09-18T17:00:21;5.28;;;2.38;;
19605;SDS011;9950;50.168;8.210;2023-09-18T17:02:49;4.45;;;2.45;;
19605;SDS011;9950;50.168;8.210;2023-09-18T17:05:16;3.28;;;1.90;;
19605;SDS011;9950;50.168;8.210;2023-09-18T17:07:44;3.63;;;2.13;;
19605;SDS011;9950;50.168;8.210;2023-09-18T17:10:11;4.05;;;2.42;;
19605;SDS011;9950;50.168;8.210;2023-09-18T17:12:38;5.07;;;2.05;;
19605;SDS011;9950;50.168;8.210;2023-09-18T17:15:06;7.10;;;2.05;;
19605;SDS011;9950;50.168;8.210;2023-09-18T17:17:35;4.50;;;2.20;;
19605;SDS011;9950;50.168;8.210;2023-09-18T17:20:03;5.22;;;2.20;;
19605;SDS011;9950;50.168;8.210;2023-09-18T17:22:31;4.07;;;2.08;;
19605;SDS011;9950;50.168;8.210;2023-09-18T17:24:58;5.97;;;2.28;;
19605;SDS011;9950;50.168;8.210;2023-09-18T17:27:26;7.93;;;2.10;;
19605;SDS011;9950;50.168;8.210;2023-09-18T17:29:53;4.90;;;2.30;;
19605;SDS011;9950;50.168;8.210;2023-09-18T17:32:21;6.93;;;2.75;;
19605;SDS011;9950;50.168;8.210;2023-09-18T17:34:50;3.80;;;1.98;;
19605;SDS011;9950;50.168;8.210;2023-09-18T17:37:18;4.22;;;2.30;;
19605;SDS011;9950;50.168;8.210;2023-09-18T17:39:45;3.75;;;1.75;;
19605;SDS011;9950;50.168;8.210;2023-09-18T17:42:12;7.43;;;2.33;;
19605;SDS011;9950;50.168;8.210;2023-09-18T17:44:39;3.42;;;2.25;;
19605;SDS011;9950;50.168;8.210;2023-09-18T17:47:06;5.13;;;1.98;;
19605;SDS011;9950;50.168;8.210;2023-09-18T17:49:34;5.85;;;2.15;;
19605;SDS011;9950;50.168;8.210;2023-09-18T17:52:03;3.95;;;2.20;;
19605;SDS011;9950;50.168;8.210;2023-09-18T17:54:33;5.15;;;2.65;;
19605;SDS011;9950;50.168;8.210;2023-09-18T17:57:00;3.55;;;2.10;;
19605;SDS011;9950;50.168;8.210;2023-09-18T17:59:28;4.72;;;2.20;;
19605;SDS011;9950;50.168;8.210;2023-09-18T18:01:56;3.53;;;2.53;;
19605;SDS011;9950;50.168;8.210;2023-09-18T18:04:23;7.88;;;3.28;;
19605;SDS011;9950;50.168;8.210;2023-09-18T18:06:50;3.78;;;2.20;;
19605;SDS011;9950;50.168;8.210;2023-09-18T18:09:19;5.15;;;2.28;;
19605;SDS011;9950;50.168;8.210;2023-09-18T18:11:47;5.78;;;2.08;;
19605;SDS011;9950;50.168;8.210;2023-09-18T18:14:14;5.63;;;1.95;;
19605;SDS011;9950;50.168;8.210;2023-09-18T18:16:43;4.57;;;1.90;;
19605;SDS011;9950;50.168;8.210;2023-09-18T18:19:13;3.95;;;2.40;;
19605;SDS011;9950;50.168;8.210;2023-09-18T18:21:41;4.95;;;2.20;;
19605;SDS011;9950;50.168;8.210;2023-09-18T18:24:08;4.35;;;2.45;;
19605;SDS011;9950;50.168;8.210;2023-09-18T18:26:37;7.07;;;2.67;;
19605;SDS011;9950;50.168;8.210;2023-09-18T18:29:04;4.05;;;1.90;;
19605;SDS011;9950;50.168;8.210;2023-09-18T18:31:31;4.35;;;2.33;;
19605;SDS011;9950;50.168;8.210;2023-09-18T18:33:59;4.40;;;2.30;;
19605;SDS011;9950;50.168;8.210;2023-09-18T18:36:28;7.55;;;2.97;;
19605;SDS011;9950;50.168;8.210;2023-09-18T18:38:56;3.85;;;2.40;;
19605;SDS011;9950;50.168;8.210;2023-09-18T18:41:24;7.28;;;2.40;;
19605;SDS011;9950;50.168;8.210;2023-09-18T18:43:53;6.10;;;2.60;;
19605;SDS011;9950;50.168;8.210;2023-09-18T18:46:21;7.20;;;2.40;;
19605;SDS011;9950;50.168;8.210;2023-09-18T18:48:49;5.15;;;2.40;;
19605;SDS011;9950;50.168;8.210;2023-09-18T18:51:16;5.85;;;2.42;;
19605;SDS011;9950;50.168;8.210;2023-09-18T18:53:45;4.47;;;2.30;;
19605;SDS011;9950;50.168;8.210;2023-09-18T18:56:13;5.95;;;2.65;;
19605;SDS011;9950;50.168;8.210;2023-09-18T18:58:41;5.05;;;2.60;;
19605;SDS011;9950;50.168;8.210;2023-09-18T19:01:11;4.95;;;2.42;;
19605;SDS011;9950;50.168;8.210;2023-09-18T19:03:39;5.45;;;2.15;;
19605;SDS011;9950;50.168;8.210;2023-09-18T19:06:08;4.13;;;2.65;;
19605;SDS011;9950;50.168;8.210;2023-09-18T19:08:36;6.50;;;2.50;;
19605;SDS011;9950;50.168;8.210;2023-09-18T19:11:04;6.85;;;2.40;;
19605;SDS011;9950;50.168;8.210;2023-09-18T19:13:33;4.13;;;2.50;;
19605;SDS011;9950;50.168;8.210;2023-09-18T19:16:01;4.53;;;2.20;;
19605;SDS011;9950;50.168;8.210;2023-09-18T19:18:29;3.47;;;2.60;;
19605;SDS011;9950;50.168;8.210;2023-09-18T19:20:56;4.55;;;3.08;;
19605;SDS011;9950;50.168;8.210;2023-09-18T19:23:24;5.30;;;2.45;;
19605;SDS011;9950;50.168;8.210;2023-09-18T19:25:53;4.63;;;2.53;;
19605;SDS011;9950;50.168;8.210;2023-09-18T19:28:20;5.03;;;2.92;;
19605;SDS011;9950;50.168;8.210;2023-09-18T19:30:47;4.18;;;2.42;;
19605;SDS011;9950;50.168;8.210;2023-09-18T19:33:18;5.40;;;2.80;;
19605;SDS011;9950;50.168;8.210;2023-09-18T19:35:47;6.13;;;2.78;;
19605;SDS011;9950;50.168;8.210;2023-09-18T19:38:15;3.47;;;2.40;;
19605;SDS011;9950;50.168;8.210;2023-09-18T19:40:43;6.05;;;2.80;;
19605;SDS011;9950;50.168;8.210;2023-09-18T19:43:11;5.05;;;2.42;;
19605;SDS011;9950;50.168;8.210;2023-09-18T19:45:38;5.45;;;2.60;;
19605;SDS011;9950;50.168;8.210;2023-09-18T19:48:06;3.90;;;2.45;;
19605;SDS011;9950;50.168;8.210;2023-09-18T19:50:33;6.30;;;2.55;;
19605;SDS011;9950;50.168;8.210;2023-09-18T19:53:01;6.43;;;3.05;;
19605;SDS011;9950;50.168;8.210;2023-09-18T19:55:29;5.03;;;2.67;;
19605;SDS011;9950;50.168;8.210;2023-09-18T19:57:56;4.20;;;2.67;;
19605;SDS011;9950;50.168;8.210;2023-09-18T20:00:23;4.13;;;2.60;;
19605;SDS011;9950;50.168;8.210;2023-09-18T20:02:51;6.47;;;2.40;;
19605;SDS011;9950;50.168;8.210;2023-09-18T20:05:20;3.58;;;2.40;;
19605;SDS011;9950;50.168;8.210;2023-09-18T20:07:48;6.43;;;2.45;;
19605;SDS011;9950;50.168;8.210;2023-09-18T20:10:17;6.85;;;2.58;;
19605;SDS011;9950;50.168;8.210;2023-09-18T20:12:47;4.20;;;2.40;;
19605;SDS011;9950;50.168;8.210;2023-09-18T20:15:14;5.18;;;2.50;;
19605;SDS011;9950;50.168;8.210;2023-09-18T20:17:42;3.63;;;2.40;;
19605;SDS011;9950;50.168;8.210;2023-09-18T20:20:11;4.22;;;2.40;;
19605;SDS011;9950;50.168;8.210;2023-09-18T20:22:39;4.38;;;2.35;;
19605;SDS011;9950;50.168;8.210;2023-09-18T20:25:06;3.75;;;2.40;;
19605;SDS011;9950;50.168;8.210;2023-09-18T20:27:38;6.40;;;2.40;;
19605;SDS011;9950;50.168;8.210;2023-09-18T20:30:07;5.30;;;2.80;;
19605;SDS011;9950;50.168;8.210;2023-09-18T20:32:34;5.53;;;2.20;;
19605;SDS011;9950;50.168;8.210;2023-09-18T20:35:02;5.65;;;2.85;;
19605;SDS011;9950;50.168;8.210;2023-09-18T20:37:29;4.65;;;2.78;;
19605;SDS011;9950;50.168;8.210;2023-09-18T20:39:56;4.20;;;2.47;;
19605;SDS011;9950;50.168;8.210;2023-09-18T20:42:24;5.05;;;2.10;;
19605;SDS011;9950;50.168;8.210;2023-09-18T20:44:53;4.30;;;1.67;;
19605;SDS011;9950;50.168;8.210;2023-09-18T20:47:20;5.00;;;1.77;;
19605;SDS011;9950;50.168;8.210;2023-09-18T20:49:48;1.65;;;1.30;;
19605;SDS011;9950;50.168;8.210;2023-09-18T20:52:15;3.17;;;1.38;;
19605;SDS011;9950;50.168;8.210;2023-09-18T20:54:42;3.22;;;1.58;;
19605;SDS011;9950;50.168;8.210;2023-09-18T20:57:10;2.20;;;1.25;;
19605;SDS011;9950;50.168;8.210;2023-09-18T20:59:37;2.35;;;1.17;;
19605;SDS011;9950;50.168;8.210;2023-09-18T21:02:06;2.30;;;1.20;;
19605;SDS011;9950;50.168;8.210;2023-09-18T21:04:35;2.22;;;1.45;;
19605;SDS011;9950;50.168;8.210;2023-09-18T21:07:03;3.28;;;1.23;;
19605;SDS011;9950;50.168;8.210;2023-09-18T21:09:31;3.38;;;1.38;;
19605;SDS011;9950;50.168;8.210;2023-09-18T21:11:58;2.70;;;1.40;;
19605;SDS011;9950;50.168;8.210;2023-09-18T21:14:27;2.70;;;1.30;;
19605;SDS011;9950;50.168;8.210;2023-09-18T21:16:55;2.58;;;1.30;;
19605;SDS011;9950;50.168;8.210;2023-09-18T21:19:24;1.98;;;1.25;;
19605;SDS011;9950;50.168;8.210;2023-09-18T21:21:51;3.13;;;1.50;;
19605;SDS011;9950;50.168;8.210;2023-09-18T21:24:19;2.72;;;1.35;;
19605;SDS011;9950;50.168;8.210;2023-09-18T21:26:46;1.55;;;1.35;;
19605;SDS011;9950;50.168;8.210;2023-09-18T21:29:13;2.40;;;1.65;;
19605;SDS011;9950;50.168;8.210;2023-09-18T21:31:40;2.67;;;1.55;;
19605;SDS011;9950;50.168;8.210;2023-09-18T21:34:07;1.63;;;1.50;;
19605;SDS011;9950;50.168;8.210;2023-09-18T21:36:36;3.42;;;1.58;;
19605;SDS011;9950;50.168;8.210;2023-09-18T21:39:03;3.65;;;1.90;;
19605;SDS011;9950;50.168;8.210;2023-09-18T21:41:33;3.25;;;1.80;;
19605;SDS011;9950;50.168;8.210;2023-09-18T21:44:00;4.43;;;1.80;;
19605;SDS011;9950;50.168;8.210;2023-09-18T21:46:28;4.82;;;2.03;;
19605;SDS011;9950;50.168;8.210;2023-09-18T21:48:57;3.67;;;1.33;;
19605;SDS011;9950;50.168;8.210;2023-09-18T21:51:24;2.75;;;1.60;;
19605;SDS011;9950;50.168;8.210;2023-09-18T21:53:52;5.13;;;1.80;;
19605;SDS011;9950;50.168;8.210;2023-09-18T21:56:19;3.53;;;1.70;;
19605;SDS011;9950;50.168;8.210;2023-09-18T21:58:46;3.30;;;1.70;;
19605;SDS011;9950;50.168;8.210;2023-09-18T22:01:14;3.25;;;1.60;;
19605;SDS011;9950;50.168;8.210;2023-09-18T22:03:41;4.93;;;1.83;;
19605;SDS011;9950;50.168;8.210;2023-09-18T22:06:09;3.42;;;1.80;;
19605;SDS011;9950;50.168;8.210;2023-09-18T22:08:36;3.42;;;1.75;;
19605;SDS011;9950;50.168;8.210;2023-09-18T22:11:05;3.38;;;2.13;;
19605;SDS011;9950;50.168;8.210;2023-09-18T22:13:32;4.88;;;2.38;;
19605;SDS011;9950;50.168;8.210;2023-09-18T22:16:00;3.47;;;1.98;;
19605;SDS011;9950;50.168;8.210;2023-09-18T22:18:28;2.80;;;2.05;;
19605;SDS011;9950;50.168;8.210;2023-09-18T22:20:56;4.82;;;2.10;;
19605;SDS011;9950;50.168;8.210;2023-09-18T22:23:23;3.00;;;1.85;;
19605;SDS011;9950;50.168;8.210;2023-09-18T22:25:53;3.50;;;2.13;;
19605;SDS011;9950;50.168;8.210;2023-09-18T22:28:22;4.25;;;2.08;;
19605;SDS011;9950;50.168;8.210;2023-09-18T22:30:49;3.10;;;2.05;;
19605;SDS011;9950;50.168;8.210;2023-09-18T22:33:17;4.25;;;2.28;;
19605;SDS011;9950;50.168;8.210;2023-09-18T22:35:46;3.75;;;2.63;;
19605;SDS011;9950;50.168;8.210;2023-09-18T22:38:16;5.65;;;2.60;;
19605;SDS011;9950;50.168;8.210;2023-09-18T22:56:45;6.28;;;2.45;;
19605;SDS011;9950;50.168;8.210;2023-09-18T22:59:12;3.72;;;2.45;;
19605;SDS011;9950;50.168;8.210;2023-09-18T23:01:39;3.30;;;2.47;;
19605;SDS011;9950;50.168;8.210;2023-09-18T23:04:06;7.40;;;2.80;;
19605;SDS011;9950;50.168;8.210;2023-09-18T23:06:38;4.57;;;2.78;;
19605;SDS011;9950;50.168;8.210;2023-09-18T23:09:08;4.68;;;2.53;;
19605;SDS011;9950;50.168;8.210;2023-09-18T23:11:39;3.03;;;2.42;;
19605;SDS011;9950;50.168;8.210;2023-09-18T23:14:07;4.60;;;2.75;;
19605;SDS011;9950;50.168;8.210;2023-09-18T23:16:34;4.00;;;2.60;;
19605;SDS011;9950;50.168;8.210;2023-09-18T23:19:03;4.60;;;2.65;;
19605;SDS011;9950;50.168;8.210;2023-09-18T23:21:30;3.90;;;2.63;;
19605;SDS011;9950;50.168;8.210;2023-09-18T23:23:57;5.15;;;2.85;;
19605;SDS011;9950;50.168;8.210;2023-09-18T23:26:24;4.55;;;2.80;;
19605;SDS011;9950;50.168;8.210;2023-09-18T23:28:54;3.28;;;2.78;;
19605;SDS011;9950;50.168;8.210;2023-09-18T23:31:22;3.28;;;2.55;;
19605;SDS011;9950;50.168;8.210;2023-09-18T23:33:50;4.57;;;2.38;;
19605;SDS011;9950;50.168;8.210;2023-09-18T23:36:18;6.90;;;3.50;;
19605;SDS011;9950;50.168;8.210;2023-09-18T23:38:46;4.00;;;2.65;;
19605;SDS011;9950;50.168;8.210;2023-09-18T23:41:13;4.25;;;2.80;;
19605;SDS011;9950;50.168;8.210;2023-09-18T23:43:40;6.75;;;3.03;;
19605;SDS011;9950;50.168;8.210;2023-09-18T23:46:09;6.03;;;2.90;;
19605;SDS011;9950;50.168;8.210;2023-09-18T23:48:40;4.32;;;2.70;;
19605;SDS011;9950;50.168;8.210;2023-09-18T23:51:10;4.35;;;2.70;;
19605;SDS011;9950;50.168;8.210;2023-09-18T23:53:37;4.28;;;3.03;;
19605;SDS011;9950;50.168;8.210;2023-09-18T23:56:06;5.32;;;3.13;;
19605;SDS011;9950;50.168;8.210;2023-09-18T23:58:37;3.30;;;2.65;;
